createdAt,value
2018-10-03T00:01:13.030Z,99306.76
2018-10-03T00:03:41.209Z,99306.76
2018-10-03T00:06:09.423Z,99315.39
2018-10-03T00:08:37.635Z,99312.66
2018-10-03T00:11:05.816Z,99314.32
2018-10-03T00:13:34.051Z,99318.03
2018-10-03T00:16:02.291Z,99322.86
2018-10-03T00:18:30.555Z,99320.57
2018-10-03T00:20:58.764Z,99319.47
2018-10-03T00:23:26.956Z,99321.88
2018-10-03T00:25:55.020Z,99320.91
2018-10-03T00:28:23.309Z,99319.33
2018-10-03T00:30:51.499Z,99310.83
2018-10-03T00:33:19.723Z,99311.69
2018-10-03T00:35:47.901Z,99319.84
2018-10-03T00:38:16.700Z,99327.63
2018-10-03T00:40:45.033Z,99331.91
2018-10-03T00:43:13.204Z,99335.75
2018-10-03T00:45:41.472Z,99332.77
2018-10-03T00:48:09.815Z,99325.93
2018-10-03T00:50:38.263Z,99321.20
2018-10-03T00:53:06.875Z,99327.84
2018-10-03T00:55:35.128Z,99329.80
2018-10-03T00:58:04.000Z,99329.33
2018-10-03T01:00:32.256Z,99320.36
2018-10-03T01:03:00.406Z,99319.16
2018-10-03T01:05:28.581Z,99320.61
2018-10-03T01:07:57.025Z,99320.61
2018-10-03T01:10:25.374Z,99311.25
2018-10-03T01:12:53.524Z,99307.64
2018-10-03T01:15:21.740Z,99305.95
2018-10-03T01:17:50.325Z,99299.86
2018-10-03T01:20:18.615Z,99288.00
2018-10-03T01:22:46.871Z,99291.61
2018-10-03T01:25:15.068Z,99295.44
2018-10-03T01:27:43.248Z,99302.03
2018-10-03T01:30:11.552Z,99293.99
2018-10-03T01:32:39.961Z,99302.02
2018-10-03T01:35:08.214Z,99297.70
2018-10-03T01:37:36.483Z,99304.66
2018-10-03T01:40:04.669Z,99299.72
2018-10-03T01:42:32.888Z,99296.27
2018-10-03T01:45:01.086Z,99293.98
2018-10-03T01:47:29.315Z,99300.70
2018-10-03T01:49:57.546Z,99294.23
2018-10-03T01:52:25.694Z,99297.81
2018-10-03T01:54:53.880Z,99303.22
2018-10-03T01:57:22.060Z,99298.29
2018-10-03T01:59:50.282Z,99311.59
2018-10-03T02:02:18.554Z,99299.59
2018-10-03T02:04:46.712Z,99291.34
2018-10-03T02:07:14.931Z,99300.69
2018-10-03T02:09:43.086Z,99304.06
2018-10-03T02:12:11.320Z,99305.11
2018-10-03T02:14:39.481Z,99306.45
2018-10-03T02:17:07.605Z,99301.88
2018-10-03T02:19:35.780Z,99293.51
2018-10-03T02:22:03.953Z,99292.91
2018-10-03T02:24:32.196Z,99304.66
2018-10-03T02:27:00.563Z,99315.93
2018-10-03T02:29:28.828Z,99318.78
2018-10-03T02:31:56.972Z,99306.11
2018-10-03T02:34:25.240Z,99299.50
2018-10-03T02:36:53.428Z,99307.04
2018-10-03T02:39:21.683Z,99308.14
2018-10-03T02:41:49.863Z,99305.72
2018-10-03T02:44:18.213Z,99306.20
2018-10-03T02:46:46.379Z,99297.22
2018-10-03T02:49:17.468Z,99298.20
2018-10-03T02:51:45.647Z,99293.27
2018-10-03T02:54:13.793Z,99295.56
2018-10-03T02:56:41.916Z,99295.19
2018-10-03T02:59:10.146Z,99292.06
2018-10-03T03:01:39.329Z,99286.93
2018-10-03T03:04:07.427Z,99291.09
2018-10-03T03:06:35.608Z,99295.91
2018-10-03T03:09:04.453Z,99304.19
2018-10-03T03:11:32.596Z,99312.31
2018-10-03T03:14:00.838Z,99322.02
2018-10-03T03:16:28.972Z,99324.56
2018-10-03T03:18:57.195Z,99318.66
2018-10-03T03:21:25.423Z,99318.06
2018-10-03T03:23:53.628Z,99320.10
2018-10-03T03:26:21.909Z,99324.44
2018-10-03T03:28:50.239Z,99316.16
2018-10-03T03:31:19.495Z,99322.73
2018-10-03T03:33:47.726Z,99323.84
2018-10-03T03:36:15.939Z,99315.68
2018-10-03T03:38:44.128Z,99315.08
2018-10-03T03:41:12.614Z,99318.06
2018-10-03T03:43:41.360Z,99311.73
2018-10-03T03:46:09.732Z,99318.31
2018-10-03T03:48:37.973Z,99313.30
2018-10-03T03:51:06.715Z,99314.83
2018-10-03T03:53:34.878Z,99318.75
2018-10-03T03:56:03.033Z,99329.79
2018-10-03T03:58:31.273Z,99329.79
2018-10-03T04:00:59.633Z,99336.58
2018-10-03T04:03:27.908Z,99335.20
2018-10-03T04:05:56.181Z,99346.84
2018-10-03T04:08:24.459Z,99341.66
2018-10-03T04:10:52.662Z,99344.08
2018-10-03T04:13:20.813Z,99339.16
2018-10-03T04:15:49.243Z,99333.88
2018-10-03T04:18:17.444Z,99327.54
2018-10-03T04:20:45.613Z,99326.83
2018-10-03T04:23:13.753Z,99331.50
2018-10-03T04:25:41.944Z,99321.42
2018-10-03T04:28:10.071Z,99302.03
2018-10-03T04:30:38.272Z,99312.45
2018-10-03T04:33:06.544Z,99320.02
2018-10-03T04:35:34.916Z,99316.53
2018-10-03T04:38:03.072Z,99320.48
2018-10-03T04:40:31.248Z,99309.47
2018-10-03T04:42:59.380Z,99320.11
2018-10-03T04:45:27.636Z,99336.17
2018-10-03T04:47:55.860Z,99339.06
2018-10-03T04:50:24.088Z,99342.42
2018-10-03T04:52:52.391Z,99336.52
2018-10-03T04:55:20.622Z,99345.15
2018-10-03T04:57:49.024Z,99336.64
2018-10-03T05:00:17.296Z,99342.30
2018-10-03T05:02:45.444Z,99345.28
2018-10-03T05:05:13.579Z,99352.34
2018-10-03T05:07:41.783Z,99353.91
2018-10-03T05:10:09.928Z,99351.27
2018-10-03T05:12:38.133Z,99351.74
2018-10-03T05:15:06.348Z,99359.91
2018-10-03T05:17:34.655Z,99363.27
2018-10-03T05:20:02.830Z,99364.92
2018-10-03T05:22:31.168Z,99372.36
2018-10-03T05:24:59.408Z,99372.11
2018-10-03T05:27:27.549Z,99374.88
2018-10-03T05:29:55.829Z,99384.11
2018-10-03T05:32:24.047Z,99385.41
2018-10-03T05:34:52.313Z,99386.84
2018-10-03T05:37:20.500Z,99383.62
2018-10-03T05:39:48.859Z,99387.94
2018-10-03T05:42:16.979Z,99394.05
2018-10-03T05:44:45.219Z,99389.76
2018-10-03T05:47:13.451Z,99392.52
2018-10-03T05:49:41.721Z,99403.75
2018-10-03T05:52:09.919Z,99407.83
2018-10-03T05:54:38.115Z,99403.06
2018-10-03T05:57:06.513Z,99409.38
2018-10-03T05:59:34.695Z,99412.38
2018-10-03T06:02:02.985Z,99417.06
2018-10-03T06:04:31.144Z,99419.36
2018-10-03T06:06:59.305Z,99420.89
2018-10-03T06:09:27.586Z,99426.89
2018-10-03T06:11:55.899Z,99430.98
2018-10-03T06:14:24.088Z,99429.19
2018-10-03T06:16:52.212Z,99436.84
2018-10-03T06:19:20.357Z,99431.56
2018-10-03T06:21:48.491Z,99442.84
2018-10-03T06:24:17.878Z,99443.67
2018-10-03T06:26:46.201Z,99445.47
2018-10-03T06:29:14.663Z,99446.91
2018-10-03T06:31:43.270Z,99448.59
2018-10-03T06:34:11.463Z,99454.48
2018-10-03T06:36:39.609Z,99455.10
2018-10-03T06:39:08.592Z,99475.97
2018-10-03T06:41:37.847Z,99470.67
2018-10-03T06:44:06.308Z,99482.22
2018-10-03T06:46:34.679Z,99490.66
2018-10-03T06:49:02.907Z,99488.03
2018-10-03T06:51:31.308Z,99492.78
2018-10-03T06:53:59.568Z,99486.94
2018-10-03T06:56:28.038Z,99500.61
2018-10-03T06:58:56.323Z,99486.31
2018-10-03T07:01:24.477Z,99494.59
2018-10-03T07:03:52.671Z,99497.02
2018-10-03T07:06:20.844Z,99497.27
2018-10-03T07:08:49.357Z,99498.02
2018-10-03T07:11:17.568Z,99494.39
2018-10-03T07:13:45.780Z,99493.22
2018-10-03T07:16:13.976Z,99495.98
2018-10-03T07:18:42.213Z,99504.05
2018-10-03T07:21:10.676Z,99514.20
2018-10-03T07:23:38.924Z,99513.27
2018-10-03T07:26:07.625Z,99521.19
2018-10-03T07:28:35.745Z,99527.64
2018-10-03T07:31:04.215Z,99540.56
2018-10-03T07:33:32.492Z,99535.64
2018-10-03T07:36:00.801Z,99541.88
2018-10-03T07:38:28.959Z,99540.28
2018-10-03T07:40:57.425Z,99541.13
2018-10-03T07:43:26.019Z,99549.18
2018-10-03T07:45:54.200Z,99547.84
2018-10-03T07:48:22.420Z,99547.44
2018-10-03T07:50:50.748Z,99536.48
2018-10-03T07:53:18.921Z,99538.98
2018-10-03T07:55:47.265Z,99540.42
2018-10-03T07:58:15.395Z,99535.30
2018-10-03T08:00:43.642Z,99537.59
2018-10-03T08:03:13.144Z,99530.05
2018-10-03T08:05:41.312Z,99524.78
2018-10-03T08:08:09.523Z,99530.91
2018-10-03T08:10:38.523Z,99531.26
2018-10-03T08:13:06.797Z,99530.32
2018-10-03T08:15:35.042Z,99534.41
2018-10-03T08:18:03.276Z,99532.12
2018-10-03T08:20:31.441Z,99538.98
2018-10-03T08:22:59.655Z,99536.34
2018-10-03T08:25:28.115Z,99542.81
2018-10-03T08:27:56.543Z,99548.09
2018-10-03T08:30:24.720Z,99550.27
2018-10-03T08:32:52.997Z,99550.48
2018-10-03T08:35:21.299Z,99555.17
2018-10-03T08:37:49.596Z,99549.28
2018-10-03T08:40:18.096Z,99560.23
2018-10-03T08:42:46.308Z,99558.99
2018-10-03T08:45:14.475Z,99555.97
2018-10-03T08:47:42.728Z,99556.03
2018-10-03T08:50:12.367Z,99550.38
2018-10-03T08:52:40.607Z,99552.37
2018-10-03T08:55:09.038Z,99554.62
2018-10-03T08:57:37.494Z,99552.98
2018-10-03T09:00:06.327Z,99551.58
2018-10-03T09:02:34.615Z,99551.71
2018-10-03T09:05:02.852Z,99551.67
2018-10-03T09:07:31.250Z,99549.69
2018-10-03T09:09:59.520Z,99553.55
2018-10-03T09:12:28.017Z,99553.70
2018-10-03T09:14:56.893Z,99555.74
2018-10-03T09:17:25.350Z,99567.45
2018-10-03T09:19:53.702Z,99562.95
2018-10-03T09:22:22.843Z,99564.27
2018-10-03T09:24:51.372Z,99557.25
2018-10-03T09:27:19.609Z,99555.95
2018-10-03T09:29:47.823Z,99562.91
2018-10-03T09:32:15.980Z,99551.28
2018-10-03T09:34:44.116Z,99561.97
2018-10-03T09:37:12.504Z,99558.66
2018-10-03T09:39:40.721Z,99559.73
2018-10-03T09:42:08.920Z,99561.22
2018-10-03T09:44:37.094Z,99571.16
2018-10-03T09:47:05.223Z,99576.81
2018-10-03T09:49:33.443Z,99577.35
2018-10-03T09:52:01.572Z,99566.28
2018-10-03T09:54:29.771Z,99575.98
2018-10-03T09:56:57.966Z,99558.37
2018-10-03T09:59:26.170Z,99557.61
2018-10-03T10:01:54.317Z,99565.67
2018-10-03T10:04:22.576Z,99561.27
2018-10-03T10:06:51.012Z,99555.73
2018-10-03T10:09:19.163Z,99561.52
2018-10-03T10:11:47.457Z,99566.12
2018-10-03T10:14:15.552Z,99566.54
2018-10-03T10:16:43.975Z,99568.03
2018-10-03T10:19:12.127Z,99567.88
2018-10-03T10:21:40.292Z,99577.13
2018-10-03T10:24:08.499Z,99571.81
2018-10-03T10:26:36.717Z,99580.00
2018-10-03T10:29:04.881Z,99579.50
2018-10-03T10:31:33.191Z,99579.95
2018-10-03T10:34:01.384Z,99582.79
2018-10-03T10:36:29.542Z,99578.80
2018-10-03T10:38:57.815Z,99587.60
2018-10-03T10:41:26.230Z,99589.28
2018-10-03T10:43:55.244Z,99582.72
2018-10-03T10:46:23.508Z,99599.00
2018-10-03T10:48:51.640Z,99597.34
2018-10-03T10:51:20.105Z,99593.82
2018-10-03T10:53:48.413Z,99599.42
2018-10-03T10:56:16.663Z,99599.41
2018-10-03T10:58:44.883Z,99596.74
2018-10-03T11:01:13.133Z,99602.97
2018-10-03T11:03:41.355Z,99606.46
2018-10-03T11:06:09.791Z,99607.80
2018-10-03T11:08:37.995Z,99598.35
2018-10-03T11:11:06.150Z,99600.59
2018-10-03T11:13:34.357Z,99596.05
2018-10-03T11:16:02.503Z,99596.47
2018-10-03T11:18:30.712Z,99596.55
2018-10-03T11:20:58.871Z,99594.73
2018-10-03T11:23:27.257Z,99589.80
2018-10-03T11:25:56.824Z,99598.49
2018-10-03T11:28:25.199Z,99591.84
2018-10-03T11:30:53.390Z,99589.47
2018-10-03T11:33:21.736Z,99596.70
2018-10-03T11:35:49.977Z,99595.42
2018-10-03T11:38:18.226Z,99590.82
2018-10-03T11:40:46.469Z,99588.27
2018-10-03T11:43:14.702Z,99591.22
2018-10-03T11:45:42.856Z,99592.58
2018-10-03T11:48:11.183Z,99594.66
2018-10-03T11:50:39.592Z,99598.24
2018-10-03T11:53:07.897Z,99597.75
2018-10-03T11:55:36.095Z,99595.48
2018-10-03T11:58:04.333Z,99599.82
2018-10-03T12:00:32.584Z,99596.73
2018-10-03T12:03:00.934Z,99597.45
2018-10-03T12:05:29.071Z,99585.88
2018-10-03T12:07:57.970Z,99590.83
2018-10-03T12:10:26.251Z,99594.88
2018-10-03T12:12:54.380Z,99594.69
2018-10-03T12:15:22.617Z,99596.19
2018-10-03T12:17:51.298Z,99598.97
2018-10-03T12:20:19.959Z,99586.66
2018-10-03T12:22:48.184Z,99592.71
2018-10-03T12:25:16.440Z,99588.09
2018-10-03T12:27:44.675Z,99599.16
2018-10-03T12:30:12.816Z,99596.78
2018-10-03T12:32:41.094Z,99597.05
2018-10-03T12:35:09.322Z,99597.61
2018-10-03T12:37:37.728Z,99602.63
2018-10-03T12:40:05.953Z,99600.03
2018-10-03T12:42:34.356Z,99598.59
2018-10-03T12:45:02.662Z,99593.21
2018-10-03T12:47:30.816Z,99596.05
2018-10-03T12:49:59.473Z,99595.99
2018-10-03T12:52:27.691Z,99597.02
2018-10-03T12:54:55.946Z,99599.91
2018-10-03T12:57:24.144Z,99596.71
2018-10-03T12:59:52.431Z,99597.19
2018-10-03T13:02:20.639Z,99597.24
2018-10-03T13:04:48.795Z,99592.78
2018-10-03T13:07:17.072Z,99596.75
2018-10-03T13:09:45.384Z,99594.95
2018-10-03T13:12:13.527Z,99597.69
2018-10-03T13:14:41.824Z,99592.23
2018-10-03T13:17:10.051Z,99593.27
2018-10-03T13:19:38.259Z,99587.57
2018-10-03T13:22:06.611Z,99591.23
2018-10-03T13:24:34.976Z,99595.30
2018-10-03T13:27:03.221Z,99590.06
2018-10-03T13:29:31.584Z,99589.97
2018-10-03T13:31:59.784Z,99589.55
2018-10-03T13:34:28.049Z,99592.59
2018-10-03T13:36:56.280Z,99589.55
2018-10-03T13:39:24.504Z,99593.47
2018-10-03T13:41:52.656Z,99589.59
2018-10-03T13:44:20.942Z,99586.92
2018-10-03T13:46:49.220Z,99583.09
2018-10-03T13:49:17.302Z,99577.37
2018-10-03T13:51:45.783Z,99579.00
2018-10-03T13:54:14.137Z,99574.86
2018-10-03T13:56:42.284Z,99583.08
2018-10-03T13:59:10.488Z,99579.54
2018-10-03T14:01:38.723Z,99589.77
2018-10-03T14:04:07.358Z,99575.77
2018-10-03T14:06:35.899Z,99582.99
2018-10-03T14:09:05.060Z,99579.55
2018-10-03T14:11:33.315Z,99574.77
2018-10-03T14:14:01.657Z,99577.42
2018-10-03T14:16:29.976Z,99578.81
2018-10-03T14:18:58.264Z,99577.83
2018-10-03T14:21:26.488Z,99577.71
2018-10-03T14:23:55.152Z,99575.63
2018-10-03T14:26:23.504Z,99570.14
2018-10-03T14:28:51.728Z,99575.78
2018-10-03T14:31:20.103Z,99569.67
2018-10-03T14:33:48.578Z,99571.35
2018-10-03T14:36:16.807Z,99573.97
2018-10-03T14:38:45.080Z,99576.69
2018-10-03T14:41:13.285Z,99576.91
2018-10-03T14:43:41.732Z,99578.84
2018-10-03T14:46:10.076Z,99574.22
2018-10-03T14:48:38.287Z,99581.81
2018-10-03T14:51:06.686Z,99585.40
2018-10-03T14:53:35.346Z,99586.23
2018-10-03T14:56:04.383Z,99586.71
2018-10-03T14:58:32.995Z,99585.20
2018-10-03T15:01:01.339Z,99586.44
2018-10-03T15:03:29.678Z,99589.49
2018-10-03T15:05:57.976Z,99585.44
2018-10-03T15:08:26.098Z,99585.51
2018-10-03T15:10:54.383Z,99578.95
2018-10-03T15:13:22.652Z,99579.11
2018-10-03T15:15:51.089Z,99584.09
2018-10-03T15:18:19.562Z,99591.63
2018-10-03T15:20:47.974Z,99590.47
2018-10-03T15:23:16.273Z,99587.88
2018-10-03T15:25:44.540Z,99592.19
2018-10-03T15:28:12.674Z,99588.80
2018-10-03T15:30:40.898Z,99592.73
2018-10-03T15:33:09.272Z,99591.80
2018-10-03T15:35:37.731Z,99594.46
2018-10-03T15:38:06.308Z,99590.70
2018-10-03T15:40:34.596Z,99598.34
2018-10-03T15:43:02.968Z,99598.02
2018-10-03T15:45:31.171Z,99593.23
2018-10-03T15:47:59.296Z,99597.37
2018-10-03T15:50:27.546Z,99600.00
2018-10-03T15:52:55.820Z,99603.09
2018-10-03T15:55:24.092Z,99603.83
2018-10-03T15:57:52.428Z,99603.41
2018-10-03T16:00:20.598Z,99604.26
2018-10-03T16:02:48.765Z,99611.08
2018-10-03T16:05:17.049Z,99612.90
2018-10-03T16:07:45.348Z,99616.25
2018-10-03T16:10:13.575Z,99627.23
2018-10-03T16:12:41.756Z,99625.39
2018-10-03T16:15:09.969Z,99634.95
2018-10-03T16:17:38.155Z,99636.04
2018-10-03T16:20:06.812Z,99640.34
2018-10-03T16:22:34.967Z,99638.22
2018-10-03T16:25:03.147Z,99644.00
2018-10-03T16:27:31.299Z,99644.11
2018-10-03T16:29:59.501Z,99649.45
2018-10-03T16:32:27.742Z,99644.86
2018-10-03T16:34:55.899Z,99644.08
2018-10-03T16:37:24.174Z,99649.20
2018-10-03T16:39:52.368Z,99653.30
2018-10-03T16:42:20.640Z,99647.52
2018-10-03T16:44:48.860Z,99645.72
2018-10-03T16:47:17.109Z,99654.52
2018-10-03T16:49:45.388Z,99661.26
2018-10-03T16:52:13.594Z,99664.77
2018-10-03T16:54:41.965Z,99657.00
2018-10-03T16:57:10.159Z,99662.80
2018-10-03T16:59:38.463Z,99667.17
2018-10-03T17:02:06.719Z,99674.67
2018-10-03T17:04:34.852Z,99665.39
2018-10-03T17:07:03.169Z,99668.77
2018-10-03T17:09:31.335Z,99674.07
2018-10-03T17:11:59.591Z,99672.87
2018-10-03T17:14:30.071Z,99677.91
2018-10-03T17:16:58.419Z,99680.46
2018-10-03T17:19:26.700Z,99684.17
2018-10-03T17:21:55.578Z,99685.84
2018-10-03T17:24:24.880Z,99693.25
2018-10-03T17:26:53.124Z,99695.41
2018-10-03T17:29:21.302Z,99697.58
2018-10-03T17:31:49.604Z,99698.97
2018-10-03T17:34:18.240Z,99698.48
2018-10-03T17:36:48.476Z,99707.02
2018-10-03T17:39:17.265Z,99705.09
2018-10-03T17:41:46.024Z,99706.03
2018-10-03T17:44:15.083Z,99702.41
2018-10-03T17:46:43.256Z,99701.69
2018-10-03T17:49:12.075Z,99704.43
2018-10-03T17:51:40.330Z,99704.15
2018-10-03T17:54:08.491Z,99712.34
2018-10-03T17:56:36.641Z,99707.52
2018-10-03T17:59:04.920Z,99710.68
2018-10-03T18:01:34.290Z,99709.25
2018-10-03T18:04:02.452Z,99708.50
2018-10-03T18:06:30.680Z,99718.45
2018-10-03T18:08:59.029Z,99709.66
2018-10-03T18:11:27.204Z,99720.98
2018-10-03T18:13:55.397Z,99720.19
2018-10-03T18:16:23.704Z,99724.62
2018-10-03T18:18:52.006Z,99725.09
2018-10-03T18:21:20.270Z,99721.59
2018-10-03T18:23:48.491Z,99740.23
2018-10-03T18:26:16.889Z,99733.59
2018-10-03T18:28:45.300Z,99737.01
2018-10-03T18:31:14.256Z,99737.20
2018-10-03T18:33:48.199Z,99733.95
2018-10-03T18:36:16.357Z,99738.06
2018-10-03T18:38:44.573Z,99733.99
2018-10-03T18:41:12.823Z,99736.13
2018-10-03T18:43:41.012Z,99739.06
2018-10-03T18:46:09.309Z,99742.35
2018-10-03T18:48:37.460Z,99743.78
2018-10-03T18:51:06.030Z,99742.30
2018-10-03T18:53:34.224Z,99742.30
2018-10-03T18:56:02.656Z,99740.72
2018-10-03T18:58:30.936Z,99743.96
2018-10-03T19:00:59.104Z,99746.05
2018-10-03T19:03:27.422Z,99750.58
2018-10-03T19:05:55.782Z,99752.39
2018-10-03T19:08:23.892Z,99756.64
2018-10-03T19:10:52.174Z,99758.42
2018-10-03T19:13:20.325Z,99761.17
2018-10-03T19:15:48.515Z,99767.45
2018-10-03T19:18:16.776Z,99765.98
2018-10-03T19:20:46.201Z,99774.06
2018-10-03T19:23:14.644Z,99771.19
2018-10-03T19:25:43.296Z,99771.48
2018-10-03T19:28:11.481Z,99772.00
2018-10-03T19:30:39.622Z,99772.68
2018-10-03T19:33:07.788Z,99776.05
2018-10-03T19:35:36.134Z,99780.36
2018-10-03T19:38:04.734Z,99782.92
2018-10-03T19:40:32.887Z,99788.69
2018-10-03T19:43:01.276Z,99785.82
2018-10-03T19:45:29.527Z,99786.90
2018-10-03T19:47:57.718Z,99786.16
2018-10-03T19:50:26.236Z,99800.02
2018-10-03T19:52:54.670Z,99793.61
2018-10-03T19:55:23.038Z,99789.66
2018-10-03T19:57:51.277Z,99789.88
2018-10-03T20:00:19.452Z,99791.98
2018-10-03T20:02:47.609Z,99791.06
2018-10-03T20:05:15.812Z,99791.81
2018-10-03T20:07:44.023Z,99796.50
2018-10-03T20:10:12.164Z,99789.36
2018-10-03T20:12:40.421Z,99792.52
2018-10-03T20:15:08.656Z,99789.28
2018-10-03T20:17:36.868Z,99795.19
2018-10-03T20:20:05.160Z,99794.80
2018-10-03T20:22:33.326Z,99793.95
2018-10-03T20:25:01.519Z,99795.84
2018-10-03T20:27:29.791Z,99801.69
2018-10-03T20:29:57.945Z,99802.42
2018-10-03T20:32:26.189Z,99809.75
2018-10-03T20:34:54.408Z,99805.41
2018-10-03T20:37:22.627Z,99810.15
2018-10-03T20:39:50.943Z,99815.06
2018-10-03T20:42:19.132Z,99813.00
2018-10-03T20:44:48.015Z,99818.39
2018-10-03T20:47:16.140Z,99816.18
2018-10-03T20:49:44.435Z,99813.55
2018-10-03T20:52:12.820Z,99816.18
2018-10-03T20:54:41.122Z,99814.14
2018-10-03T20:57:09.284Z,99818.14
2018-10-03T20:59:37.503Z,99819.66
2018-10-03T21:02:05.666Z,99816.66
2018-10-03T21:04:33.859Z,99812.16
2018-10-03T21:07:03.030Z,99809.06
2018-10-03T21:09:31.235Z,99809.81
2018-10-03T21:11:59.459Z,99807.94
2018-10-03T21:14:27.651Z,99808.89
2018-10-03T21:16:55.858Z,99811.80
2018-10-03T21:19:24.112Z,99816.31
2018-10-03T21:21:52.278Z,99819.70
2018-10-03T21:24:20.693Z,99819.88
2018-10-03T21:26:49.148Z,99814.82
2018-10-03T21:29:17.327Z,99822.14
2018-10-03T21:31:45.468Z,99829.38
2018-10-03T21:34:13.706Z,99834.23
2018-10-03T21:36:42.009Z,99829.27
2018-10-03T21:39:10.215Z,99835.74
2018-10-03T21:41:38.390Z,99833.28
2018-10-03T21:44:06.676Z,99837.78
2018-10-03T21:46:34.951Z,99838.89
2018-10-03T21:49:03.136Z,99841.06
2018-10-03T21:51:31.459Z,99844.70
2018-10-03T21:53:59.732Z,99844.08
2018-10-03T21:56:27.987Z,99836.56
2018-10-03T21:58:56.195Z,99837.22
2018-10-03T22:02:40.277Z,99836.46
2018-10-03T22:05:09.539Z,99839.48
2018-10-03T22:07:38.315Z,99834.89
2018-10-03T22:10:06.824Z,99835.14
2018-10-03T22:12:35.203Z,99831.05
2018-10-03T22:15:03.495Z,99829.83
2018-10-03T22:17:35.852Z,99829.53
2018-10-03T22:20:04.083Z,99824.48
2018-10-03T22:22:32.461Z,99824.94
2018-10-03T22:25:00.636Z,99824.28
2018-10-03T22:27:28.772Z,99826.37
2018-10-03T22:29:56.975Z,99822.12
2018-10-03T22:32:25.121Z,99824.77
2018-10-03T22:34:53.587Z,99821.36
2018-10-03T22:37:22.016Z,99828.91
2018-10-03T22:39:50.347Z,99833.13
2018-10-03T22:42:18.519Z,99828.97
2018-10-03T22:44:46.798Z,99829.59
2018-10-03T22:47:14.964Z,99835.48
2018-10-03T22:49:43.191Z,99832.52
2018-10-03T22:52:11.358Z,99828.56
2018-10-03T22:54:39.643Z,99825.48
2018-10-03T22:57:07.790Z,99827.06
2018-10-03T22:59:35.952Z,99832.62
2018-10-03T23:02:04.198Z,99835.75
2018-10-03T23:04:32.433Z,99832.04
2018-10-03T23:07:01.102Z,99839.59
2018-10-03T23:09:29.294Z,99834.23
2018-10-03T23:11:57.519Z,99832.01
2018-10-03T23:14:25.682Z,99841.24
2018-10-03T23:16:53.964Z,99843.64
2018-10-03T23:19:22.416Z,99838.16
2018-10-03T23:21:50.601Z,99839.30
2018-10-03T23:24:18.754Z,99838.10
2018-10-03T23:26:47.313Z,99836.55
2018-10-03T23:29:15.732Z,99837.61
2018-10-03T23:31:43.915Z,99843.22
2018-10-03T23:34:12.151Z,99843.04
2018-10-03T23:36:40.565Z,99846.61
2018-10-03T23:39:10.722Z,99847.01
2018-10-03T23:41:39.326Z,99845.23
2018-10-03T23:44:07.814Z,99852.38
2018-10-03T23:46:36.326Z,99856.00
2018-10-03T23:49:04.707Z,99853.89
2018-10-03T23:51:32.891Z,99860.74
2018-10-03T23:54:01.149Z,99857.86
2018-10-03T23:56:29.631Z,99858.22
2018-10-03T23:58:57.866Z,99859.45
